Time;durP1;ratioP1;P1;durP2;ratioP2;P2;SDS_P1;SDS_P2;PMS_P1;PMS_P2;Temp;Humidity;BMP_temperature;BMP_pressure;BME280_temperature;BME280_humidity;BME280_pressure;Samples;Min_cycle;Max_cycle;Signal;HPM_P1;HPM_P2
2022/09/02 00:01:16;;;;;;;5.20;5.00;;;;;;;16.48;58.55;101434.31;6052947;23;20023;-74
2022/09/02 00:03:43;;;;;;;5.55;5.25;;;;;;;16.50;59.48;101428.94;6058794;23;20650;-74
2022/09/02 00:06:10;;;;;;;5.18;4.93;;;;;;;16.48;59.40;101429.03;6032473;23;20069;-74
2022/09/02 00:08:38;;;;;;;5.85;5.55;;;;;;;15.98;59.57;101358.16;6055657;23;20022;-74
2022/09/02 00:11:07;;;;;;;5.40;5.10;;;;;;;16.47;58.86;101424.66;6053593;23;20022;-74
2022/09/02 00:13:35;;;;;;;6.78;6.38;;;;;;;16.45;59.90;101421.25;6024123;23;20014;-74
2022/09/02 00:16:03;;;;;;;5.05;4.85;;;;;;;16.46;59.66;101414.19;6046669;23;20018;-74
2022/09/02 00:18:31;;;;;;;6.70;6.40;;;;;;;16.49;59.13;101420.09;6060873;23;20030;-74
2022/09/02 00:20:57;;;;;;;5.32;5.07;;;;;;;15.92;59.30;101322.34;6041301;23;20032;-75
2022/09/02 00:23:24;;;;;;;6.43;6.05;;;;;;;13.79;59.93;100977.13;6062528;23;20081;-75
2022/09/02 00:25:52;;;;;;;7.18;5.15;;;;;;;16.38;59.66;101405.84;6032149;23;20034;-74
2022/09/02 00:28:19;;;;;;;5.85;5.55;;;;;;;16.39;59.35;101405.75;6058035;23;20020;-73
2022/09/02 00:30:47;;;;;;;5.10;4.90;;;;;;;16.21;60.05;101404.31;6054234;23;20010;-73
2022/09/02 00:33:14;;;;;;;5.40;5.10;;;;;;;16.24;60.48;101412.06;6053222;23;20588;-74
2022/09/02 00:35:41;;;;;;;7.88;5.40;;;;;;;16.26;60.55;101411.03;6057741;23;20014;-74
2022/09/02 00:38:09;;;;;;;5.05;4.85;;;;;;;15.95;60.10;101372.41;6021765;23;20543;-74
2022/09/02 00:40:37;;;;;;;6.55;6.15;;;;;;;16.22;60.59;101409.53;6053295;23;20022;-73
2022/09/02 00:43:07;;;;;;;5.30;5.10;;;;;;;15.94;60.32;101352.19;6062715;23;20014;-74
2022/09/02 00:45:34;;;;;;;6.70;6.30;;;;;;;16.24;60.13;101404.97;6054033;23;20030;-74
2022/09/02 00:48:01;;;;;;;5.30;5.00;;;;;;;15.99;60.28;101358.03;6038926;23;20569;-74
2022/09/02 00:50:31;;;;;;;6.57;6.28;;;;;;;16.30;60.32;101401.94;6062608;23;20030;-73
2022/09/02 00:53:03;;;;;;;5.30;5.00;;;;;;;16.31;60.00;101410.72;6043090;23;20018;-73
2022/09/02 00:55:35;;;;;;;7.00;6.60;;;;;;;16.03;60.28;101351.59;6060972;23;20770;-74
2022/09/02 00:58:11;;;;;;;5.50;5.20;;;;;;;16.24;60.38;101377.66;6054459;23;20022;-75
2022/09/02 01:00:45;;;;;;;5.25;5.05;;;;;;;15.99;59.94;101341.31;6054193;23;20010;-73
2022/09/02 01:03:16;;;;;;;8.98;5.10;;;;;;;15.89;60.08;101319.88;6048401;23;20022;-74
2022/09/02 01:05:46;;;;;;;5.43;5.13;;;;;;;16.33;60.60;101398.22;6058877;23;20035;-74
2022/09/02 01:08:18;;;;;;;5.22;4.93;;;;;;;16.32;60.23;101396.53;6060616;23;20101;-74
2022/09/02 01:10:47;;;;;;;5.50;5.20;;;;;;;16.33;60.21;101392.91;6059364;23;20029;-73
2022/09/02 01:13:16;;;;;;;5.95;5.45;;;;;;;16.00;60.25;101343.03;6035761;23;20494;-73
2022/09/02 01:15:50;;;;;;;5.72;5.43;;;;;;;15.89;61.02;101314.56;6049188;23;20455;-73
2022/09/02 01:18:23;;;;;;;5.28;5.05;;;;;;;16.39;60.77;101389.03;6063527;23;20014;-73
2022/09/02 01:20:50;;;;;;;4.97;4.78;;;;;;;15.59;60.51;101264.44;6027420;23;20038;-73
2022/09/02 01:23:17;;;;;;;5.32;5.03;;;;;;;16.17;60.19;101353.34;6070324;23;20065;-72
2022/09/02 01:25:46;;;;;;;5.28;5.07;;;;;;;16.37;60.37;101390.94;6030939;23;20122;-74
2022/09/02 01:28:15;;;;;;;5.40;5.10;;;;;;;16.00;60.56;101313.91;6043892;23;20349;-73
2022/09/02 01:30:48;;;;;;;5.03;4.82;;;;;;;16.46;60.07;101387.69;6057514;23;20030;-74
2022/09/02 01:33:19;;;;;;;5.75;5.32;;;;;;;16.21;60.71;101332.81;6055727;23;20652;-73
2022/09/02 01:35:48;;;;;;;5.47;5.20;;;;;;;16.11;60.36;101314.03;6056748;23;20100;-73
2022/09/02 01:38:14;;;;;;;9.10;5.10;;;;;;;16.50;60.39;101375.94;6053462;23;20022;-74
2022/09/02 01:40:42;;;;;;;5.40;5.10;;;;;;;16.55;60.11;101373.81;6046133;23;20023;-75
2022/09/02 01:43:15;;;;;;;5.38;5.00;;;;;;;16.05;60.27;101298.53;6045955;23;20481;-74
2022/09/02 01:45:44;;;;;;;5.35;5.05;;;;;;;16.60;60.03;101397.34;6052502;23;20033;-74
2022/09/02 01:48:11;;;;;;;5.60;5.30;;;;;;;15.48;60.03;101197.22;6061929;23;20030;-75
2022/09/02 01:50:41;;;;;;;5.30;5.10;;;;;;;16.40;60.27;101357.16;6060917;23;20030;-74
2022/09/02 01:53:13;;;;;;;5.53;5.22;;;;;;;16.49;60.12;101368.91;6051252;23;20018;-74
2022/09/02 01:55:40;;;;;;;5.97;5.68;;;;;;;16.39;60.44;101355.44;6063859;23;20076;-74
2022/09/02 01:58:07;;;;;;;5.28;5.00;;;;;;;16.47;60.25;101369.00;6054784;23;20011;-74
2022/09/02 02:00:34;;;;;;;6.53;6.15;;;;;;;16.46;60.49;101377.09;6052874;23;20022;-73
2022/09/02 02:03:00;;;;;;;5.40;5.00;;;;;;;15.76;60.60;101264.25;6033602;23;20045;-73
2022/09/02 02:05:28;;;;;;;5.20;4.90;;;;;;;16.08;60.96;101308.94;6049055;23;20029;-73
2022/09/02 02:07:55;;;;;;;5.30;5.00;;;;;;;16.48;60.28;101367.25;6065552;23;20024;-73
2022/09/02 02:10:22;;;;;;;5.22;5.00;;;;;;;16.50;60.81;101381.22;6050686;23;20019;-74
2022/09/02 02:12:49;;;;;;;5.50;5.20;;;;;;;16.03;60.95;101319.81;6056250;23;20463;-74
2022/09/02 02:15:17;;;;;;;5.22;4.93;;;;;;;15.35;61.41;101255.34;6049346;23;20255;-72
2022/09/02 02:17:45;;;;;;;5.35;5.00;;;;;;;16.30;61.66;101374.59;6049652;23;20038;-73
2022/09/02 02:20:14;;;;;;;5.25;4.95;;;;;;;16.27;61.23;101370.31;6072429;23;20081;-73
2022/09/02 02:22:41;;;;;;;5.30;5.00;;;;;;;15.97;61.80;101327.31;6057424;23;20258;-74
2022/09/02 02:25:08;;;;;;;5.25;4.97;;;;;;;16.25;62.12;101374.88;6049216;23;20049;-73
2022/09/02 02:27:35;;;;;;;4.93;4.72;;;;;;;16.23;62.56;101374.13;6060877;23;20033;-72
2022/09/02 02:30:04;;;;;;;5.38;5.07;;;;;;;16.05;61.74;101347.03;6067293;23;20025;-74
2022/09/02 02:32:31;;;;;;;6.97;6.50;;;;;;;16.12;62.54;101372.19;6017485;23;20023;-74
2022/09/02 02:34:58;;;;;;;6.00;5.30;;;;;;;16.11;62.83;101374.94;6061579;23;20023;-73
2022/09/02 02:37:24;;;;;;;5.15;4.90;;;;;;;15.89;63.33;101349.81;6053728;23;20025;-74
2022/09/02 02:39:51;;;;;;;5.35;5.10;;;;;;;16.02;62.74;101372.91;6058629;23;20025;-73
2022/09/02 02:42:17;;;;;;;5.25;5.05;;;;;;;15.81;62.93;101343.34;6054490;23;20021;-74
2022/09/02 02:44:44;;;;;;;4.90;4.70;;;;;;;15.61;63.14;101312.81;6056019;23;20451;-75
2022/09/02 02:47:10;;;;;;;5.15;4.93;;;;;;;15.28;64.00;101267.25;6061057;23;20034;-75
2022/09/02 02:49:39;;;;;;;5.82;5.53;;;;;;;15.91;64.04;101379.69;6058269;23;20455;-75
2022/09/02 02:52:06;;;;;;;8.70;4.90;;;;;;;15.56;63.45;101319.25;6061283;23;20406;-74
2022/09/02 02:54:32;;;;;;;6.43;6.07;;;;;;;15.20;63.76;101248.38;6059645;23;20073;-74
2022/09/02 02:57:01;;;;;;;5.38;5.07;;;;;;;15.22;63.98;101265.00;6059609;23;20621;-74
2022/09/02 02:59:29;;;;;;;6.57;6.18;;;;;;;15.88;64.78;101356.09;6049388;23;20022;-74
2022/09/02 03:01:57;;;;;;;5.30;5.00;;;;;;;15.88;64.79;101368.47;6058311;23;20010;-75
2022/09/02 03:04:23;;;;;;;6.32;6.00;;;;;;;15.58;64.00;101348.28;6050843;23;20095;-74
2022/09/02 03:06:50;;;;;;;5.82;5.50;;;;;;;15.65;64.87;101338.97;6056379;23;20014;-75
2022/09/02 03:09:19;;;;;;;5.32;5.07;;;;;;;15.29;65.34;101283.94;6058219;23;20056;-74
2022/09/02 03:11:46;;;;;;;5.60;5.30;;;;;;;15.71;66.13;101377.44;6053830;23;20026;-74
2022/09/02 03:14:13;;;;;;;5.65;5.35;;;;;;;15.68;65.69;101365.25;6060669;23;20017;-75
2022/09/02 03:16:40;;;;;;;5.88;5.47;;;;;;;15.63;66.15;101366.50;6028507;23;20025;-75
2022/09/02 03:19:07;;;;;;;5.38;5.05;;;;;;;15.24;66.66;101307.22;6061660;23;20022;-75
2022/09/02 03:21:33;;;;;;;6.68;6.28;;;;;;;14.93;67.31;101272.06;6062396;23;20041;-74
2022/09/02 03:24:04;;;;;;;5.18;4.97;;;;;;;14.93;66.30;101264.16;6068858;23;20018;-74
2022/09/02 03:26:36;;;;;;;6.85;6.15;;;;;;;15.10;66.91;101287.75;6206145;22;20555;-74
2022/09/02 03:29:03;;;;;;;5.35;5.05;;;;;;;15.54;67.05;101367.94;6141825;23;20015;-74
2022/09/02 03:31:30;;;;;;;6.53;6.13;;;;;;;14.40;66.83;101186.34;6160962;23;20039;-73
2022/09/02 03:33:56;;;;;;;5.40;5.10;;;;;;;15.54;66.79;101374.06;6146913;23;20031;-73
2022/09/02 03:36:32;;;;;;;6.60;6.20;;;;;;;15.54;66.70;101360.84;6153165;23;20633;-73
2022/09/02 03:38:59;;;;;;;5.10;4.90;;;;;;;15.54;67.11;101363.47;6156581;23;20105;-73
2022/09/02 03:41:26;;;;;;;6.55;6.20;;;;;;;15.30;66.73;101336.75;6156877;23;20009;-73
2022/09/02 03:43:52;;;;;;;6.13;5.70;;;;;;;15.15;66.56;101283.03;6152481;23;20024;-75
2022/09/02 03:46:18;;;;;;;5.70;5.30;;;;;;;15.28;66.48;101283.13;6144414;23;20013;-74
2022/09/02 03:48:45;;;;;;;5.38;5.07;;;;;;;15.71;65.32;101351.81;6162423;23;20346;-75
2022/09/02 03:51:12;;;;;;;5.60;5.10;;;;;;;15.72;65.46;101348.28;6164978;23;20641;-74
2022/09/02 03:53:38;;;;;;;5.70;5.40;;;;;;;15.16;65.61;101279.44;6153206;23;20346;-72
2022/09/02 03:56:10;;;;;;;5.30;5.00;;;;;;;15.68;64.92;101359.13;6162918;23;20523;-73
2022/09/02 03:58:41;;;;;;;5.03;4.82;;;;;;;15.31;65.66;101287.34;6144518;23;20036;-73
2022/09/02 04:01:13;;;;;;;5.00;4.80;;;;;;;15.35;65.40;101317.94;6162488;23;20029;-73
2022/09/02 04:03:39;;;;;;;5.50;5.20;;;;;;;15.54;65.28;101350.25;6147289;23;20386;-73
2022/09/02 04:06:11;;;;;;;5.10;4.90;;;;;;;15.54;66.23;101357.34;6132965;23;20026;-72
2022/09/02 04:08:39;;;;;;;4.88;4.68;;;;;;;15.02;66.11;101283.91;6148532;23;20029;-73
2022/09/02 04:11:08;;;;;;;5.05;4.85;;;;;;;15.23;66.19;101324.00;6157337;23;20477;-73
2022/09/02 04:13:35;;;;;;;6.38;6.07;;;;;;;15.42;65.70;101347.53;6115243;23;20028;-73
2022/09/02 04:16:08;;;;;;;5.63;5.32;;;;;;;15.23;65.79;101319.56;6159883;23;20025;-73
2022/09/02 04:18:36;;;;;;;5.78;5.38;;;;;;;15.32;66.67;101356.03;6160200;23;20500;-72
2022/09/02 04:21:03;;;;;;;5.20;4.90;;;;;;;15.20;66.38;101318.91;6170117;23;20029;-74
2022/09/02 04:23:31;;;;;;;6.05;5.75;;;;;;;15.44;65.83;101345.63;6139898;23;20324;-72
2022/09/02 04:25:58;;;;;;;4.88;4.68;;;;;;;15.48;65.98;101348.00;6156798;23;20048;-75
2022/09/02 04:28:24;;;;;;;6.32;6.03;;;;;;;15.51;65.71;101345.13;6148931;23;20517;-75
2022/09/02 04:30:51;;;;;;;5.40;5.10;;;;;;;15.48;65.79;101342.69;6159592;23;20035;-75
2022/09/02 04:33:17;;;;;;;5.15;4.88;;;;;;;15.04;66.05;101269.63;6151793;23;20005;-75
2022/09/02 04:35:45;;;;;;;5.43;5.13;;;;;;;15.46;66.74;101352.53;6150822;23;20141;-73
2022/09/02 04:38:12;;;;;;;5.57;5.07;;;;;;;15.11;65.71;101272.72;6111962;23;20591;-73
2022/09/02 04:40:40;;;;;;;5.60;5.30;;;;;;;15.55;65.42;101338.75;6123836;23;20021;-73
2022/09/02 04:43:08;;;;;;;4.78;4.57;;;;;;;15.61;65.41;101341.91;6126994;23;20013;-74
2022/09/02 04:45:38;;;;;;;6.15;5.85;;;;;;;15.56;65.50;101335.13;6141423;23;20017;-75
2022/09/02 04:48:04;;;;;;;5.22;4.93;;;;;;;15.56;65.99;101332.47;6127607;23;20068;-75
2022/09/02 04:50:31;;;;;;;5.97;5.68;;;;;;;15.18;65.94;101276.72;6149651;23;20021;-74
2022/09/02 04:52:58;;;;;;;4.90;4.70;;;;;;;15.46;65.55;101320.78;6134537;23;20013;-74
2022/09/02 04:55:25;;;;;;;5.93;5.63;;;;;;;15.46;64.61;101315.50;6065688;23;20049;-77
2022/09/02 04:57:51;;;;;;;5.10;4.90;;;;;;;14.93;64.86;101229.78;6098259;23;20069;-77
2022/09/02 05:00:18;;;;;;;6.25;5.95;;;;;;;14.49;64.55;101132.97;6077879;23;20017;-76
2022/09/02 05:02:44;;;;;;;5.10;4.80;;;;;;;15.52;64.65;101309.81;6072708;23;20022;-77
2022/09/02 05:05:11;;;;;;;5.32;4.95;;;;;;;15.33;64.63;101275.75;6094603;23;20017;-77
2022/09/02 05:07:38;;;;;;;5.18;4.97;;;;;;;15.69;65.53;101332.53;6105743;23;20419;-76
2022/09/02 05:10:06;;;;;;;5.40;5.10;;;;;;;15.79;64.58;101330.19;6101834;23;20097;-75
2022/09/02 05:12:35;;;;;;;7.00;6.60;;;;;;;15.83;64.49;101331.69;6067771;23;20032;-75
2022/09/02 05:15:02;;;;;;;5.00;4.80;;;;;;;15.90;65.00;101330.38;6140511;23;20030;-77
2022/09/02 05:17:30;;;;;;;6.13;5.82;;;;;;;15.99;64.21;101322.78;6117730;23;20025;-75
2022/09/02 05:19:58;;;;;;;7.63;5.43;;;;;;;15.34;64.02;101219.25;6099891;23;20654;-75
2022/09/02 05:22:28;;;;;;;6.57;6.18;;;;;;;15.80;63.48;101260.44;6121397;23;20612;-75
2022/09/02 05:24:55;;;;;;;4.90;4.70;;;;;;;15.83;63.31;101276.13;6075456;23;20018;-76
2022/09/02 05:27:22;;;;;;;5.35;5.07;;;;;;;15.80;62.80;101244.56;6116582;23;20646;-75
2022/09/02 05:29:55;;;;;;;5.03;4.72;;;;;;;15.82;62.60;101237.38;6123261;23;20620;-76
2022/09/02 05:32:22;;;;;;;6.07;5.78;;;;;;;15.91;63.11;101242.06;6117586;23;20089;-76
2022/09/02 05:34:49;;;;;;;5.43;5.07;;;;;;;16.45;62.70;101325.88;6080042;23;20025;-77
2022/09/02 05:37:15;;;;;;;5.38;5.07;;;;;;;16.42;62.34;101307.56;6090618;23;20084;-76
2022/09/02 05:39:42;;;;;;;5.35;5.05;;;;;;;16.64;62.07;101322.00;6112155;23;20466;-77
2022/09/02 05:42:08;;;;;;;5.30;5.00;;;;;;;16.33;61.58;101263.97;6115133;23;20077;-74
2022/09/02 05:44:35;;;;;;;5.97;5.68;;;;;;;16.95;60.52;101318.97;6098657;23;20013;-75
2022/09/02 05:47:02;;;;;;;5.10;4.90;;;;;;;16.98;60.62;101298.50;6122378;23;20021;-76
2022/09/02 05:49:29;;;;;;;6.38;6.07;;;;;;;17.28;59.40;101311.41;6116706;23;20016;-75
2022/09/02 05:51:58;;;;;;;5.10;4.90;;;;;;;17.45;58.58;101308.41;6113715;23;20028;-74
2022/09/02 05:54:28;;;;;;;5.97;5.68;;;;;;;17.39;58.40;101268.22;6124870;23;20624;-75
2022/09/02 05:56:58;;;;;;;5.40;5.10;;;;;;;17.86;57.49;101309.06;6117802;23;20127;-74
2022/09/02 05:59:27;;;;;;;7.03;6.57;;;;;;;17.98;57.51;101302.88;6131693;23;20069;-75
2022/09/02 06:01:55;;;;;;;5.18;4.97;;;;;;;18.03;56.85;101295.38;6110702;23;20024;-75
2022/09/02 06:04:22;;;;;;;6.72;6.32;;;;;;;18.17;56.46;101299.69;6129416;23;20035;-75
2022/09/02 06:06:49;;;;;;;5.35;5.05;;;;;;;18.19;55.56;101281.81;6136820;23;20458;-75
2022/09/02 06:09:20;;;;;;;5.00;4.80;;;;;;;17.96;55.62;101226.91;6124561;23;20500;-74
2022/09/02 06:11:48;;;;;;;5.45;5.15;;;;;;;18.60;55.87;101299.09;6116024;23;20010;-75
2022/09/02 06:14:19;;;;;;;5.47;5.18;;;;;;;18.71;54.73;101293.78;6111432;23;20088;-75
2022/09/02 06:16:46;;;;;;;5.38;5.18;;;;;;;18.80;54.77;101291.41;6101841;23;20018;-75
2022/09/02 06:19:12;;;;;;;5.43;5.13;;;;;;;18.54;53.87;101227.78;6118839;23;20040;-75
2022/09/02 06:21:45;;;;;;;5.82;5.53;;;;;;;18.50;53.74;101195.28;6122203;23;20081;-75
2022/09/02 06:24:12;;;;;;;5.60;5.30;;;;;;;18.63;53.19;101205.81;6116662;23;20601;-75
2022/09/02 06:26:40;;;;;;;5.32;5.03;;;;;;;19.24;53.90;101287.91;6110044;23;20020;-75
2022/09/02 06:29:09;;;;;;;5.70;5.30;;;;;;;19.40;53.05;101281.38;6122226;23;20025;-75
2022/09/02 06:31:36;;;;;;;6.20;5.88;;;;;;;18.84;52.70;101181.19;6086966;23;20048;-75
2022/09/02 06:34:03;;;;;;;5.68;5.38;;;;;;;19.55;52.76;101282.81;6103386;23;20049;-76
2022/09/02 06:36:30;;;;;;;6.53;6.22;;;;;;;19.57;52.57;101264.06;6100863;23;20466;-76
2022/09/02 06:38:59;;;;;;;5.28;5.05;;;;;;;20.03;52.10;101276.28;6106667;23;20020;-76
2022/09/02 06:41:28;;;;;;;6.55;6.25;;;;;;;19.19;51.56;101133.13;6103073;23;20080;-75
2022/09/02 06:43:57;;;;;;;6.10;5.70;;;;;;;20.12;52.27;101283.50;6106471;23;20017;-75
2022/09/02 06:46:30;;;;;;;6.68;6.28;;;;;;;20.28;51.53;101280.41;6107823;23;20041;-76
2022/09/02 06:48:57;;;;;;;5.35;5.10;;;;;;;20.35;51.36;101286.94;6098591;23;20028;-75
2022/09/02 06:51:30;;;;;;;5.30;5.10;;;;;;;19.99;50.70;101209.09;6115682;23;20032;-76
2022/09/02 06:53:57;;;;;;;5.45;5.15;;;;;;;20.03;51.17;101225.69;6105990;23;20013;-75
2022/09/02 06:56:26;;;;;;;7.03;6.28;;;;;;;19.99;51.59;101256.22;6095645;23;20043;-75
2022/09/02 06:58:53;;;;;;;5.50;5.20;;;;;;;20.01;51.96;101287.06;6107128;23;20034;-76
2022/09/02 07:01:22;;;;;;;5.95;5.65;;;;;;;19.89;52.38;101288.94;6106587;23;20096;-74
2022/09/02 07:06:36;;;;;;;6.45;6.05;;;;;;;19.49;53.65;101296.63;6098529;23;20647;-75
2022/09/02 07:09:08;;;;;;;5.50;5.20;;;;;;;19.32;54.69;101297.97;6087314;23;20026;-75
2022/09/02 07:11:36;;;;;;;6.18;5.88;;;;;;;18.20;54.19;101123.25;6105638;23;20852;-75
2022/09/02 07:14:03;;;;;;;5.47;5.18;;;;;;;18.66;54.89;101226.84;6108635;23;20497;-75
2022/09/02 07:16:34;;;;;;;6.57;6.18;;;;;;;18.58;54.62;101212.44;6098641;23;20112;-75
2022/09/02 07:19:02;;;;;;;5.60;5.30;;;;;;;19.05;55.26;101291.19;6098265;23;20071;-76
2022/09/02 07:21:30;;;;;;;6.88;6.57;;;;;;;19.23;54.75;101288.91;6114078;23;20047;-75
2022/09/02 07:24:00;;;;;;;5.80;5.50;;;;;;;19.48;54.38;101284.28;6125420;23;20009;-75
2022/09/02 07:26:27;;;;;;;6.63;6.22;;;;;;;18.81;53.69;101176.13;6107908;23;20009;-75
2022/09/02 07:28:54;;;;;;;5.38;5.07;;;;;;;19.28;53.99;101201.56;6118213;23;20028;-75
2022/09/02 07:31:22;;;;;;;6.22;5.90;;;;;;;19.61;53.66;101217.56;6104824;23;20510;-75
2022/09/02 07:33:48;;;;;;;5.70;5.40;;;;;;;20.32;52.23;101265.84;6092349;23;20009;-76
2022/09/02 07:36:20;;;;;;;5.70;5.40;;;;;;;20.36;53.08;101266.44;6104419;23;20037;-74
2022/09/02 07:38:47;;;;;;;5.82;5.53;;;;;;;20.60;52.63;101229.69;6106535;23;20024;-77
2022/09/02 07:41:13;;;;;;;5.50;5.20;;;;;;;20.53;51.55;101212.53;6099691;23;20497;-75
2022/09/02 07:43:40;;;;;;;5.70;5.40;;;;;;;19.91;50.90;101089.03;6103245;23;20024;-75
2022/09/02 07:46:06;;;;;;;5.63;5.30;;;;;;;21.01;50.41;101253.78;6113367;23;20576;-75
2022/09/02 07:48:33;;;;;;;8.27;6.75;;;;;;;20.52;50.70;101186.81;6091406;23;20091;-75
2022/09/02 07:51:00;;;;;;;5.90;5.60;;;;;;;20.41;51.05;101186.94;6124016;23;20027;-76
2022/09/02 07:53:27;;;;;;;7.13;6.72;;;;;;;20.66;51.05;101207.84;6101489;23;20084;-76
2022/09/02 07:55:54;;;;;;;5.90;5.60;;;;;;;20.44;51.48;101138.66;6111625;23;20564;-74
2022/09/02 07:58:21;;;;;;;6.45;5.95;;;;;;;21.05;50.23;101242.69;6102259;23;20033;-74
2022/09/02 08:00:49;;;;;;;5.78;5.47;;;;;;;20.69;51.31;101266.25;6108637;23;20036;-75
2022/09/02 08:03:16;;;;;;;7.63;7.05;;;;;;;20.28;51.60;101253.75;6104453;23;20030;-74
2022/09/02 08:05:45;;;;;;;6.20;5.70;;;;;;;19.84;51.99;101221.03;6104042;23;20021;-76
2022/09/02 08:08:14;;;;;;;5.72;5.43;;;;;;;20.10;52.63;101290.78;6075101;23;20028;-75
2022/09/02 08:10:41;;;;;;;5.55;5.25;;;;;;;19.72;52.40;101193.59;6104329;23;20076;-75
2022/09/02 08:13:09;;;;;;;5.32;5.10;;;;;;;20.06;52.11;101228.06;6094552;23;20025;-75
2022/09/02 08:15:36;;;;;;;6.40;6.10;;;;;;;20.02;51.82;101170.69;6106612;23;20022;-76
2022/09/02 08:18:04;;;;;;;5.97;5.63;;;;;;;20.49;51.16;101181.78;6115506;23;20044;-75
2022/09/02 08:20:30;;;;;;;7.18;6.78;;;;;;;20.74;51.01;101198.34;6118858;23;20092;-75
2022/09/02 08:22:57;;;;;;;5.70;5.40;;;;;;;20.35;51.57;101169.63;6119324;23;20352;-75
2022/09/02 08:25:37;;;;;;;5.85;5.55;;;;;;;20.72;51.19;101233.13;6114973;23;20037;-75
2022/09/02 08:28:04;;;;;;;6.55;6.15;;;;;;;20.62;50.93;101162.91;6114611;23;20017;-75
2022/09/02 08:30:30;;;;;;;7.07;6.68;;;;;;;20.80;50.78;101179.97;6110060;23;20084;-75
2022/09/02 08:32:57;;;;;;;5.70;5.40;;;;;;;21.20;50.40;101248.50;6112227;23;20073;-77
2022/09/02 08:35:24;;;;;;;6.40;6.10;;;;;;;21.40;51.08;101249.38;6097887;23;20041;-75
2022/09/02 08:37:51;;;;;;;5.90;5.53;;;;;;;21.20;49.99;101202.28;6104891;23;20017;-76
2022/09/02 08:40:20;;;;;;;6.05;5.75;;;;;;;21.62;49.48;101247.50;6099338;23;20021;-74
2022/09/02 08:42:50;;;;;;;5.88;5.57;;;;;;;21.22;50.11;101153.09;6094303;23;20019;-75
2022/09/02 08:45:27;;;;;;;5.72;5.30;;;;;;;21.98;49.80;101237.13;6084647;23;20014;-75
2022/09/02 08:48:23;;;;;;;5.95;5.65;;;;;;;21.64;48.40;101197.44;6076370;23;20020;-76
2022/09/02 08:50:54;;;;;;;6.03;5.70;;;;;;;21.81;49.51;101234.16;6008211;23;20018;-76
2022/09/02 08:53:39;;;;;;;6.30;6.00;;;;;;;22.12;48.22;101228.66;6072266;23;20033;-76
2022/09/02 08:56:09;;;;;;;5.80;5.50;;;;;;;22.24;47.86;101235.56;6112026;23;20028;-76
2022/09/02 08:58:40;;;;;;;6.82;6.38;;;;;;;22.12;48.03;101183.22;6098278;23;20074;-76
2022/09/02 09:01:24;;;;;;;5.70;5.40;;;;;;;22.49;47.24;101227.91;6107432;23;20017;-76
2022/09/02 09:04:21;;;;;;;5.72;5.40;;;;;;;22.39;47.00;101224.41;6102184;23;20017;-76
2022/09/02 09:07:24;;;;;;;5.70;5.40;;;;;;;22.66;47.65;101224.47;6101184;23;20022;-76
2022/09/02 09:10:02;;;;;;;5.60;5.30;;;;;;;22.65;47.46;101209.44;6104392;23;20648;-75
2022/09/02 09:12:55;;;;;;;7.13;6.82;;;;;;;22.72;46.85;101195.47;6108007;23;20055;-76
2022/09/02 09:15:49;;;;;;;6.55;6.25;;;;;;;22.93;45.64;101204.06;6101675;23;20014;-76
2022/09/02 09:18:19;;;;;;;5.95;5.65;;;;;;;21.85;46.11;101028.97;6098822;23;20096;-75
2022/09/02 09:20:47;;;;;;;6.07;5.70;;;;;;;22.79;46.03;101159.94;6097161;23;20013;-76
2022/09/02 09:23:18;;;;;;;6.00;5.70;;;;;;;23.23;45.60;101200.31;6088335;23;20020;-76
2022/09/02 09:25:51;;;;;;;6.40;6.00;;;;;;;23.05;45.50;101156.56;6085751;23;20098;-76
2022/09/02 09:28:17;;;;;;;5.97;5.68;;;;;;;23.30;44.59;101149.66;6123289;23;20012;-75
2022/09/02 09:30:43;;;;;;;5.82;5.53;;;;;;;23.11;44.91;101091.72;6133633;23;20434;-76
2022/09/02 09:33:15;;;;;;;5.90;5.60;;;;;;;22.83;44.04;101013.28;6133865;23;20088;-75
2022/09/02 09:35:52;;;;;;;5.80;5.50;;;;;;;23.78;43.92;101152.97;6107210;23;20037;-76
2022/09/02 09:38:34;;;;;;;6.63;6.22;;;;;;;23.89;44.87;101169.66;6129308;23;20025;-74
2022/09/02 09:41:15;;;;;;;6.13;5.68;;;;;;;24.23;44.00;101168.84;6135842;23;20029;-75
2022/09/02 09:43:42;;;;;;;6.00;5.60;;;;;;;23.78;43.50;101104.72;6122962;23;20091;-76
2022/09/02 09:46:31;;;;;;;6.07;5.75;;;;;;;23.84;43.21;101071.94;6130168;23;20513;-76
2022/09/02 09:48:57;;;;;;;5.72;5.43;;;;;;;24.24;43.52;101119.59;6138792;23;20005;-75
2022/09/02 09:51:24;;;;;;;7.32;6.93;;;;;;;24.30;42.12;101131.53;6113766;23;20017;-76
2022/09/02 09:53:51;;;;;;;5.82;5.53;;;;;;;24.39;41.97;101135.06;6139902;23;20021;-77
2022/09/02 09:56:26;;;;;;;6.00;5.65;;;;;;;24.45;41.29;101170.16;6135164;23;20104;-75
2022/09/02 09:58:52;;;;;;;6.70;6.30;;;;;;;24.02;41.53;101098.69;6138478;23;20021;-77
2022/09/02 10:01:31;;;;;;;5.93;5.63;;;;;;;24.49;41.87;101150.03;6114910;23;20029;-75
2022/09/02 10:04:24;;;;;;;6.20;5.70;;;;;;;24.29;41.37;101084.22;6137233;23;20013;-77
2022/09/02 10:07:10;;;;;;;6.05;5.75;;;;;;;24.54;40.94;101140.75;6139005;23;20212;-76
2022/09/02 10:09:36;;;;;;;6.72;6.43;;;;;;;24.83;39.96;101153.75;6128733;23;20040;-77
2022/09/02 10:12:10;;;;;;;6.22;5.93;;;;;;;24.63;39.45;101135.22;6132221;23;20906;-76
2022/09/02 10:14:47;;;;;;;6.55;6.25;;;;;;;24.83;40.13;101156.44;6138491;23;20231;-76
2022/09/02 10:17:33;;;;;;;5.80;5.50;;;;;;;24.74;37.14;101166.31;6127480;23;20025;-76
2022/09/02 10:20:16;;;;;;;5.82;5.53;;;;;;;24.79;37.70;101160.44;6153305;23;20028;-76
2022/09/02 10:23:09;;;;;;;5.88;5.57;;;;;;;24.54;37.97;101104.00;6133982;23;20004;-77
2022/09/02 10:25:48;;;;;;;5.80;5.50;;;;;;;24.87;38.14;101155.94;6141164;23;20028;-75
2022/09/02 10:28:40;;;;;;;6.00;5.70;;;;;;;24.98;37.59;101151.31;6130743;23;20060;-76
2022/09/02 10:31:24;;;;;;;5.80;5.50;;;;;;;24.79;37.72;101080.75;6137910;23;20080;-76
2022/09/02 10:34:02;;;;;;;5.90;5.60;;;;;;;24.96;36.44;101086.19;6114005;23;20091;-77
2022/09/02 10:36:40;;;;;;;6.82;6.43;;;;;;;25.05;37.04;101104.81;6131603;23;20025;-77
2022/09/02 10:39:36;;;;;;;5.90;5.60;;;;;;;24.95;36.70;101101.44;6126820;23;20017;-77
2022/09/02 10:42:16;;;;;;;5.90;5.60;;;;;;;24.77;36.62;101088.13;6139409;23;20028;-77
2022/09/02 10:45:09;;;;;;;6.20;5.90;;;;;;;25.01;36.71;101126.78;6129931;23;20019;-77
2022/09/02 10:47:39;;;;;;;6.22;5.93;;;;;;;25.42;35.74;101138.47;6130330;23;20027;-76
2022/09/02 10:50:22;;;;;;;5.70;5.40;;;;;;;25.73;35.56;101137.81;6124148;23;20025;-76
2022/09/02 10:53:04;;;;;;;5.78;5.40;;;;;;;25.19;34.10;101086.38;6137587;23;20039;-77
2022/09/02 10:55:59;;;;;;;6.72;6.43;;;;;;;25.51;34.39;101103.56;6133058;23;20041;-77
2022/09/02 10:58:39;;;;;;;6.75;6.45;;;;;;;24.87;35.28;101071.88;6125717;23;20048;-76
2022/09/02 11:01:09;;;;;;;5.80;5.50;;;;;;;24.96;35.81;101051.28;6141485;23;20017;-75
2022/09/02 11:03:57;;;;;;;6.15;5.65;;;;;;;25.16;34.66;101086.69;6131073;23;20009;-77
2022/09/02 11:06:29;;;;;;;6.70;6.40;;;;;;;25.50;35.06;101131.41;6138066;23;20024;-77
2022/09/02 11:09:40;;;;;;;5.70;5.40;;;;;;;24.68;35.23;100982.59;6123535;23;20532;-76
2022/09/02 11:12:15;;;;;;;6.15;5.75;;;;;;;25.26;35.26;101123.19;6137371;23;20024;-77
2022/09/02 11:15:09;;;;;;;5.82;5.43;;;;;;;25.67;35.58;101120.50;6130781;23;20025;-76
2022/09/02 11:17:48;;;;;;;6.93;6.53;;;;;;;25.79;34.80;101109.41;6128395;23;20021;-76
2022/09/02 11:20:39;;;;;;;5.88;5.57;;;;;;;25.76;34.90;101123.19;6136524;23;20492;-75
2022/09/02 11:23:29;;;;;;;5.90;5.60;;;;;;;25.93;34.92;101124.88;6150667;23;20017;-76
2022/09/02 11:26:13;;;;;;;5.47;5.25;;;;;;;26.12;34.39;101115.63;6145641;23;20036;-75
2022/09/02 11:29:03;;;;;;;7.10;6.60;;;;;;;26.46;33.96;101103.69;6128986;23;20082;-75
2022/09/02 11:31:45;;;;;;;7.45;7.05;;;;;;;26.33;33.44;100993.13;6134851;23;20025;-76
2022/09/02 11:34:33;;;;;;;5.93;5.63;;;;;;;27.25;32.57;101096.41;6137680;23;20037;-75
2022/09/02 11:37:07;;;;;;;6.10;5.57;;;;;;;27.00;32.20;101103.81;6135774;23;20718;-75
2022/09/02 11:39:43;;;;;;;5.90;5.60;;;;;;;26.83;32.79;101053.75;6135707;23;20095;-76
2022/09/02 11:42:40;;;;;;;6.47;6.18;;;;;;;26.92;32.24;101036.53;6123658;23;20033;-76
2022/09/02 11:45:20;;;;;;;5.88;5.50;;;;;;;27.11;32.47;101090.94;6130448;23;20046;-76